Time;durP1;ratioP1;P1;durP2;ratioP2;P2;SDS_P1;SDS_P2;PMS_P1;PMS_P2;Temp;Humidity;BMP_temperature;BMP_pressure;BME280_temperature;BME280_humidity;BME280_pressure;Samples;Min_cycle;Max_cycle;Signal;HPM_P1;HPM_P2
2023/06/01 00:02:00;;;;;;;3.95;2.75;;;20.90;51.70;;;;;;5014895;28;20126;-77
2023/06/01 00:04:25;;;;;;;5.15;3.05;;;20.80;51.70;;;;;;4998081;28;20030;-77
2023/06/01 00:06:51;;;;;;;3.63;2.70;;;20.80;51.70;;;;;;5014137;28;20502;-77
2023/06/01 00:09:17;;;;;;;3.97;2.70;;;20.70;51.80;;;;;;4997947;28;20033;-77
2023/06/01 00:11:43;;;;;;;4.10;2.80;;;20.70;51.80;;;;;;5015787;28;20038;-77
2023/06/01 00:14:10;;;;;;;4.60;2.90;;;20.60;51.80;;;;;;5015438;28;20375;-77
2023/06/01 00:16:36;;;;;;;4.22;3.35;;;20.60;51.90;;;;;;4998427;28;20037;-77
2023/06/01 00:19:03;;;;;;;4.13;3.22;;;20.50;51.90;;;;;;5047175;28;20527;-77
2023/06/01 00:21:31;;;;;;;4.70;3.58;;;20.50;52.00;;;;;;5015014;28;20030;-80
2023/06/01 00:23:58;;;;;;;4.80;3.42;;;20.40;52.10;;;;;;5030887;28;20053;-76
2023/06/01 00:26:25;;;;;;;5.25;3.58;;;20.40;52.10;;;;;;5014251;28;20069;-77
2023/06/01 00:28:51;;;;;;;5.57;3.88;;;20.30;52.10;;;;;;5030354;28;20037;-77
2023/06/01 00:31:18;;;;;;;5.32;3.40;;;20.30;52.10;;;;;;5014206;28;20034;-79
2023/06/01 00:33:44;;;;;;;4.97;3.47;;;20.20;52.20;;;;;;5046662;28;20497;-77
2023/06/01 00:36:10;;;;;;;4.93;3.40;;;20.20;52.20;;;;;;4997606;28;20076;-77
2023/06/01 00:38:35;;;;;;;3.95;3.08;;;20.10;52.20;;;;;;5013643;28;20037;-77
2023/06/01 00:41:01;;;;;;;4.95;3.33;;;20.00;52.20;;;;;;5047455;28;20045;-77
2023/06/01 00:43:27;;;;;;;5.07;3.22;;;20.00;52.30;;;;;;5013968;28;20026;-77
2023/06/01 00:45:54;;;;;;;4.25;3.20;;;20.00;52.40;;;;;;5014859;28;20121;-77
2023/06/01 00:48:20;;;;;;;5.72;3.67;;;19.90;52.40;;;;;;5013440;28;20129;-76
2023/06/01 00:50:47;;;;;;;4.85;3.65;;;19.90;52.40;;;;;;5014453;28;20087;-76
2023/06/01 00:53:18;;;;;;;5.30;3.25;;;19.80;52.50;;;;;;5015988;28;20037;-76
2023/06/01 00:55:46;;;;;;;5.53;3.42;;;19.80;52.60;;;;;;4998187;28;20030;-75
2023/06/01 00:58:12;;;;;;;4.35;3.28;;;19.70;52.60;;;;;;4997477;28;20029;-76
2023/06/01 01:00:40;;;;;;;4.38;3.13;;;19.70;52.60;;;;;;5013330;28;20069;-76
2023/06/01 01:03:09;;;;;;;4.13;3.00;;;19.60;52.60;;;;;;5030486;28;20029;-75
2023/06/01 01:05:39;;;;;;;4.75;3.20;;;19.60;52.60;;;;;;5013996;28;20443;-76
2023/06/01 01:08:26;;;;;;;3.65;3.00;;;19.50;52.60;;;;;;5014616;28;20064;-75
2023/06/01 01:11:10;;;;;;;4.43;3.20;;;19.50;52.70;;;;;;5046253;28;20406;-77
2023/06/01 01:13:50;;;;;;;4.30;2.70;;;19.40;52.70;;;;;;5029907;28;20038;-76
2023/06/01 01:16:20;;;;;;;4.72;3.00;;;19.40;52.70;;;;;;5046261;28;20382;-78
2023/06/01 01:18:54;;;;;;;3.83;2.88;;;19.30;52.70;;;;;;5045993;28;20033;-76
2023/06/01 01:21:29;;;;;;;3.97;3.10;;;19.30;52.80;;;;;;5029730;28;20026;-76
2023/06/01 01:24:21;;;;;;;4.60;3.25;;;19.20;52.90;;;;;;5014211;28;20030;-76
2023/06/01 01:27:05;;;;;;;3.88;2.60;;;19.20;53.00;;;;;;5046158;28;20045;-75
2023/06/01 01:29:32;;;;;;;3.40;2.72;;;19.10;53.00;;;;;;5014211;28;20057;-75
2023/06/01 01:32:00;;;;;;;4.35;2.72;;;19.00;53.00;;;;;;5014728;28;20026;-76
2023/06/01 01:34:28;;;;;;;4.43;2.83;;;19.00;53.10;;;;;;5045764;28;20026;-75
2023/06/01 01:36:55;;;;;;;3.67;2.75;;;19.00;53.10;;;;;;4996311;28;20041;-76
2023/06/01 01:39:21;;;;;;;4.07;2.85;;;19.00;53.10;;;;;;5029131;28;20030;-76
2023/06/01 01:41:46;;;;;;;4.00;2.70;;;18.90;53.10;;;;;;5013182;28;20030;-76
2023/06/01 01:44:14;;;;;;;5.05;2.95;;;18.80;53.10;;;;;;5013512;28;20030;-76
2023/06/01 01:47:09;;;;;;;5.60;2.70;;;18.80;53.30;;;;;;5045877;28;20061;-76
2023/06/01 01:49:40;;;;;;;4.53;2.75;;;18.80;53.40;;;;;;5015210;28;20037;-78
2023/06/01 01:52:20;;;;;;;3.90;2.63;;;18.70;53.40;;;;;;5047098;28;20036;-75
2023/06/01 01:54:49;;;;;;;3.15;2.50;;;18.70;53.50;;;;;;5028958;28;20036;-76
2023/06/01 01:57:17;;;;;;;4.35;3.00;;;18.60;53.50;;;;;;5028809;28;20040;-76
2023/06/01 01:59:46;;;;;;;3.33;2.42;;;18.60;53.60;;;;;;5012417;28;20382;-76
2023/06/01 02:02:12;;;;;;;3.42;2.53;;;18.50;53.60;;;;;;5012399;28;20037;-76
2023/06/01 02:04:40;;;;;;;4.13;2.58;;;18.50;53.60;;;;;;5028886;28;20072;-76
2023/06/01 02:07:07;;;;;;;4.28;2.78;;;18.50;53.70;;;;;;5028516;28;20124;-76
2023/06/01 02:09:34;;;;;;;3.38;2.42;;;18.40;53.70;;;;;;4996258;28;20441;-76
2023/06/01 02:12:01;;;;;;;3.72;2.50;;;18.40;54.20;;;;;;4996972;28;20030;-76
2023/06/01 02:14:28;;;;;;;3.90;2.58;;;18.40;53.80;;;;;;5012875;28;20130;-76
2023/06/01 02:16:55;;;;;;;4.43;2.95;;;18.30;53.80;;;;;;4995791;28;20124;-76
2023/06/01 02:19:21;;;;;;;4.07;2.65;;;18.30;53.90;;;;;;4996574;28;20030;-75
2023/06/01 02:21:47;;;;;;;3.42;2.72;;;18.20;53.80;;;;;;5030442;28;20093;-75
2023/06/01 02:24:13;;;;;;;3.45;2.67;;;18.20;53.90;;;;;;5000719;28;20525;-76
2023/06/01 02:26:40;;;;;;;4.43;2.85;;;18.20;54.00;;;;;;5017430;28;20045;-77
2023/06/01 02:29:06;;;;;;;4.82;2.80;;;18.10;54.00;;;;;;5017443;28;20026;-76
2023/06/01 02:31:32;;;;;;;4.10;2.60;;;18.10;54.00;;;;;;5049177;28;20040;-78
2023/06/01 02:33:59;;;;;;;5.05;2.80;;;18.10;54.10;;;;;;5050075;28;20025;-76
2023/06/01 02:36:28;;;;;;;4.60;3.00;;;18.00;54.10;;;;;;5032399;28;20064;-76
2023/06/01 02:38:55;;;;;;;5.07;2.78;;;18.00;54.10;;;;;;5016595;28;20072;-76
2023/06/01 02:41:24;;;;;;;3.92;2.65;;;18.00;54.20;;;;;;5015960;28;20030;-77
2023/06/01 02:43:51;;;;;;;3.85;2.72;;;18.00;54.20;;;;;;5016127;28;20037;-76
2023/06/01 02:46:18;;;;;;;3.47;2.70;;;17.90;54.20;;;;;;4999638;28;20390;-77
2023/06/01 02:48:44;;;;;;;4.10;2.83;;;17.90;54.20;;;;;;5048972;28;20030;-77
2023/06/01 02:51:10;;;;;;;3.50;2.60;;;17.90;54.30;;;;;;5048577;28;20025;-77
2023/06/01 02:53:36;;;;;;;3.95;2.90;;;17.90;54.30;;;;;;5000233;28;20167;-76
2023/06/01 02:56:05;;;;;;;4.28;2.88;;;17.80;54.30;;;;;;5048613;28;20044;-77
2023/06/01 02:58:34;;;;;;;4.10;2.70;;;17.80;54.40;;;;;;5016716;28;20095;-78
2023/06/01 03:01:11;;;;;;;4.15;2.55;;;17.70;54.50;;;;;;5001886;28;20431;-76
2023/06/01 03:03:41;;;;;;;4.70;2.88;;;17.70;54.50;;;;;;5049262;28;20036;-77
2023/06/01 03:06:08;;;;;;;3.75;2.70;;;17.70;54.60;;;;;;5015247;28;20026;-77
2023/06/01 03:09:12;;;;;;;5.18;2.85;;;17.70;54.60;;;;;;5020943;28;20113;-77
2023/06/01 03:11:57;;;;;;;4.32;2.90;;;17.60;54.50;;;;;;5015714;28;20502;-78
2023/06/01 03:14:22;;;;;;;4.10;2.78;;;17.60;54.60;;;;;;5031919;28;20025;-75
2023/06/01 03:16:48;;;;;;;3.65;2.53;;;17.60;54.60;;;;;;5015445;28;20030;-75
2023/06/01 03:19:19;;;;;;;3.78;2.90;;;17.50;54.70;;;;;;5031204;28;20034;-76
2023/06/01 03:21:49;;;;;;;4.53;3.08;;;17.50;54.80;;;;;;5015638;28;20033;-76
2023/06/01 03:24:18;;;;;;;3.45;2.55;;;17.50;54.80;;;;;;4999239;28;20072;-77
2023/06/01 03:26:44;;;;;;;4.65;2.88;;;17.50;54.90;;;;;;5015464;28;20164;-75
2023/06/01 03:29:09;;;;;;;4.13;3.08;;;17.40;54.80;;;;;;4998386;28;20033;-77
2023/06/01 03:31:37;;;;;;;4.63;3.13;;;17.40;54.90;;;;;;5014956;28;20033;-76
2023/06/01 03:34:02;;;;;;;4.53;2.80;;;17.40;54.90;;;;;;4999303;28;20042;-76
2023/06/01 03:36:28;;;;;;;4.45;3.05;;;17.40;54.90;;;;;;5014604;28;20196;-78
2023/06/01 03:38:57;;;;;;;4.55;2.88;;;17.40;55.00;;;;;;4998807;28;20093;-78
2023/06/01 03:41:25;;;;;;;4.65;2.92;;;17.30;55.00;;;;;;5015904;28;20061;-76
2023/06/01 03:43:51;;;;;;;4.13;3.00;;;17.30;55.00;;;;;;5015184;28;20045;-76
2023/06/01 03:46:17;;;;;;;4.22;3.30;;;17.30;55.00;;;;;;4998986;28;20405;-77
2023/06/01 03:48:43;;;;;;;5.20;3.10;;;17.30;55.10;;;;;;5049012;28;20120;-76
2023/06/01 03:51:09;;;;;;;3.65;2.72;;;17.30;55.10;;;;;;5047992;28;20040;-77
2023/06/01 03:53:35;;;;;;;4.07;3.03;;;17.20;55.10;;;;;;5016123;28;20396;-76
2023/06/01 03:56:02;;;;;;;4.60;2.97;;;17.20;55.10;;;;;;5014332;28;20044;-76
2023/06/01 03:58:35;;;;;;;4.18;2.78;;;17.20;55.10;;;;;;5000780;28;20053;-76
2023/06/01 04:01:03;;;;;;;4.75;2.85;;;17.20;55.20;;;;;;5047159;28;20201;-76
2023/06/01 04:03:29;;;;;;;5.35;2.78;;;17.10;55.20;;;;;;4999017;28;20038;-77
2023/06/01 04:05:59;;;;;;;6.78;2.80;;;17.10;55.20;;;;;;5014324;28;20449;-76
2023/06/01 04:08:29;;;;;;;4.75;2.97;;;17.10;55.30;;;;;;5015590;28;20502;-76
2023/06/01 04:10:55;;;;;;;4.55;2.95;;;17.00;55.30;;;;;;5014668;28;20033;-76
2023/06/01 04:13:21;;;;;;;5.18;3.00;;;17.10;55.30;;;;;;5031137;28;20034;-76
2023/06/01 04:15:47;;;;;;;3.67;2.70;;;17.00;55.30;;;;;;5000723;28;20450;-80
2023/06/01 04:18:15;;;;;;;4.20;3.00;;;17.00;55.30;;;;;;5048600;28;20068;-78
2023/06/01 04:20:52;;;;;;;3.90;2.55;;;17.00;55.40;;;;;;5029636;28;20137;-78
2023/06/01 04:23:19;;;;;;;4.65;2.63;;;17.00;55.40;;;;;;5013859;28;20045;-76
2023/06/01 04:25:45;;;;;;;4.05;2.60;;;16.90;55.40;;;;;;5015317;28;20026;-77
2023/06/01 04:28:12;;;;;;;5.38;2.97;;;16.90;55.40;;;;;;5046964;28;20360;-76
2023/06/01 04:30:38;;;;;;;5.22;3.25;;;16.90;55.50;;;;;;5014788;28;20045;-77
2023/06/01 04:33:04;;;;;;;4.13;2.58;;;16.90;55.50;;;;;;5014516;28;20565;-76
2023/06/01 04:35:32;;;;;;;5.45;3.20;;;16.90;55.60;;;;;;4998035;28;20372;-80
2023/06/01 04:37:58;;;;;;;4.07;2.95;;;16.90;55.60;;;;;;4981371;28;20034;-77
2023/06/01 04:40:26;;;;;;;4.13;2.80;;;16.90;55.60;;;;;;5046592;28;20123;-77
2023/06/01 04:42:55;;;;;;;4.30;2.70;;;16.80;55.50;;;;;;5046717;28;20034;-78
2023/06/01 04:45:23;;;;;;;4.60;2.95;;;16.80;55.60;;;;;;5013717;28;20048;-77
2023/06/01 04:47:49;;;;;;;5.43;3.10;;;16.80;55.60;;;;;;5030175;28;20548;-81
2023/06/01 04:50:37;;;;;;;3.42;2.58;;;16.80;55.60;;;;;;5013196;28;20038;-77
2023/06/01 04:53:03;;;;;;;3.88;2.80;;;16.80;55.60;;;;;;4997524;28;20060;-77
2023/06/01 04:55:30;;;;;;;4.13;2.50;;;16.80;55.70;;;;;;5029828;28;20037;-77
2023/06/01 04:57:56;;;;;;;4.10;2.83;;;16.80;55.70;;;;;;5013361;28;20037;-75
2023/06/01 05:00:22;;;;;;;4.32;2.85;;;16.70;55.70;;;;;;5029742;28;20070;-77
2023/06/01 05:02:49;;;;;;;4.03;2.47;;;16.70;55.80;;;;;;4997690;28;20084;-76
2023/06/01 05:05:16;;;;;;;4.45;2.65;;;16.70;55.80;;;;;;5013332;28;20050;-76
2023/06/01 05:07:43;;;;;;;4.45;2.83;;;16.70;55.80;;;;;;5013016;28;20050;-79
2023/06/01 05:10:12;;;;;;;4.20;2.50;;;16.70;55.90;;;;;;5029956;28;20475;-78
2023/06/01 05:12:46;;;;;;;4.53;2.72;;;16.70;55.90;;;;;;4998138;28;20080;-79
2023/06/01 05:15:16;;;;;;;4.38;2.67;;;16.70;56.20;;;;;;4996885;28;20068;-80
2023/06/01 05:17:42;;;;;;;4.40;2.65;;;16.70;55.90;;;;;;5029204;28;20069;-77
2023/06/01 05:20:14;;;;;;;4.68;2.95;;;16.70;55.90;;;;;;5029559;28;20580;-78
2023/06/01 05:22:42;;;;;;;4.20;2.65;;;16.70;55.90;;;;;;5028800;28;20034;-78
2023/06/01 05:25:08;;;;;;;4.43;2.75;;;16.70;55.90;;;;;;4996899;28;20038;-79
2023/06/01 05:27:36;;;;;;;4.10;2.50;;;16.70;55.90;;;;;;5028875;28;20033;-78
2023/06/01 05:30:02;;;;;;;5.00;2.50;;;16.60;55.90;;;;;;5046010;28;20037;-76
2023/06/01 05:32:29;;;;;;;4.68;2.78;;;16.60;56.00;;;;;;4996767;28;20467;-77
2023/06/01 05:35:00;;;;;;;4.65;2.90;;;16.70;56.00;;;;;;4997884;28;20038;-79
2023/06/01 05:37:26;;;;;;;4.60;3.50;;;16.60;56.00;;;;;;5045554;28;20134;-77
2023/06/01 05:39:53;;;;;;;4.95;2.80;;;16.70;56.10;;;;;;5012917;28;20057;-78
2023/06/01 05:42:19;;;;;;;4.90;2.95;;;16.60;56.00;;;;;;5013001;28;20196;-77
2023/06/01 05:44:45;;;;;;;4.25;2.67;;;16.70;56.10;;;;;;5046694;28;20069;-77
2023/06/01 05:47:11;;;;;;;4.60;2.75;;;16.60;56.00;;;;;;5045497;28;20133;-77
2023/06/01 05:49:36;;;;;;;5.28;2.65;;;16.70;56.10;;;;;;5045503;28;20045;-76
2023/06/01 05:52:04;;;;;;;4.18;2.88;;;16.60;56.10;;;;;;5012487;28;20046;-75
2023/06/01 05:54:30;;;;;;;5.30;2.88;;;16.70;56.20;;;;;;4996263;28;20080;-77
2023/06/01 05:56:56;;;;;;;4.65;3.17;;;16.60;56.20;;;;;;4995224;28;20038;-76
2023/06/01 05:59:22;;;;;;;4.40;2.75;;;16.60;56.10;;;;;;4996337;28;20049;-76
2023/06/01 06:01:48;;;;;;;4.50;3.03;;;16.70;56.20;;;;;;5045141;28;20030;-76
2023/06/01 06:04:15;;;;;;;4.80;2.92;;;16.70;56.20;;;;;;5045369;28;20037;-77
2023/06/01 06:06:40;;;;;;;4.72;2.75;;;16.70;56.20;;;;;;4995749;28;20077;-77
2023/06/01 06:09:06;;;;;;;3.70;2.60;;;16.70;56.20;;;;;;4996004;28;20065;-77
2023/06/01 06:11:32;;;;;;;5.65;3.17;;;16.70;56.20;;;;;;4996240;28;20069;-76
2023/06/01 06:13:58;;;;;;;4.30;2.78;;;16.70;56.20;;;;;;5012178;28;20469;-77
2023/06/01 06:16:24;;;;;;;3.95;2.97;;;16.70;56.20;;;;;;5013624;28;20062;-75
2023/06/01 06:18:50;;;;;;;5.35;3.10;;;16.70;56.30;;;;;;5045239;28;20034;-74
2023/06/01 06:21:16;;;;;;;5.20;2.67;;;16.70;56.20;;;;;;4995902;28;20157;-78
2023/06/01 06:23:42;;;;;;;4.72;2.83;;;16.70;56.20;;;;;;5012971;28;20026;-78
2023/06/01 06:26:08;;;;;;;5.15;2.83;;;16.70;56.30;;;;;;5011848;28;20121;-77
2023/06/01 06:28:34;;;;;;;5.20;2.92;;;16.70;56.20;;;;;;5028859;28;20117;-77
2023/06/01 06:31:00;;;;;;;4.03;3.00;;;16.70;56.30;;;;;;4996227;28;20447;-77
2023/06/01 06:33:26;;;;;;;4.57;2.85;;;16.70;56.30;;;;;;5014567;28;20467;-77
2023/06/01 06:35:51;;;;;;;4.43;2.75;;;16.80;56.30;;;;;;5013680;28;20034;-78
2023/06/01 06:38:17;;;;;;;5.05;2.90;;;16.80;56.30;;;;;;5014671;28;20034;-78
2023/06/01 06:40:43;;;;;;;4.10;2.70;;;16.80;56.30;;;;;;5012852;28;20034;-83
2023/06/01 06:43:09;;;;;;;4.15;2.67;;;16.80;56.30;;;;;;4997500;28;20033;-77
2023/06/01 06:45:35;;;;;;;4.78;2.72;;;16.80;56.40;;;;;;5012741;28;20148;-77
2023/06/01 06:48:01;;;;;;;5.18;2.97;;;16.80;56.40;;;;;;5012288;28;20418;-78
2023/06/01 06:50:26;;;;;;;5.05;3.08;;;16.80;56.40;;;;;;5012898;28;20041;-78
2023/06/01 06:52:53;;;;;;;5.13;3.00;;;16.80;56.40;;;;;;5011752;28;20399;-80
2023/06/01 06:55:18;;;;;;;5.07;2.92;;;16.90;56.50;;;;;;5012023;28;20034;-77
2023/06/01 06:57:44;;;;;;;5.10;3.10;;;16.90;56.50;;;;;;5011648;28;20479;-78
2023/06/01 07:00:14;;;;;;;5.78;3.10;;;16.90;56.40;;;;;;5011840;28;20037;-78
2023/06/01 07:02:44;;;;;;;5.07;2.90;;;16.90;56.40;;;;;;5012379;28;20040;-78
2023/06/01 07:05:10;;;;;;;4.88;2.70;;;16.90;56.50;;;;;;5011721;28;20049;-77
2023/06/01 07:07:37;;;;;;;4.25;3.08;;;17.00;56.50;;;;;;5029266;28;20045;-76
2023/06/01 07:10:04;;;;;;;3.90;2.83;;;17.00;56.50;;;;;;4999166;28;20034;-77
2023/06/01 07:12:30;;;;;;;4.18;2.90;;;17.00;56.40;;;;;;5016441;28;20033;-77
2023/06/01 07:14:55;;;;;;;4.45;2.90;;;17.00;56.50;;;;;;5015742;28;20030;-79
2023/06/01 07:17:21;;;;;;;5.38;3.00;;;17.00;56.40;;;;;;4999015;28;20478;-77
2023/06/01 07:19:47;;;;;;;5.68;3.30;;;17.00;56.50;;;;;;5014940;28;20049;-77
2023/06/01 07:22:13;;;;;;;4.65;3.22;;;17.10;56.50;;;;;;4982794;28;20030;-76
2023/06/01 07:24:39;;;;;;;5.70;3.20;;;17.10;56.50;;;;;;5016002;28;20030;-77
2023/06/01 07:27:05;;;;;;;5.78;3.08;;;17.10;56.50;;;;;;5014863;28;20167;-77
2023/06/01 07:29:32;;;;;;;5.28;2.80;;;17.10;56.50;;;;;;5015044;28;20080;-77
2023/06/01 07:31:58;;;;;;;4.15;2.78;;;17.20;56.50;;;;;;5015046;28;20036;-77
2023/06/01 07:34:24;;;;;;;4.60;2.78;;;17.20;56.40;;;;;;5031656;28;20120;-77
2023/06/01 07:36:50;;;;;;;4.55;2.70;;;17.20;56.30;;;;;;4999332;28;20042;-76
2023/06/01 07:39:16;;;;;;;6.78;3.08;;;17.30;56.30;;;;;;5014753;28;20040;-77
2023/06/01 07:41:44;;;;;;;4.55;3.28;;;17.40;56.40;;;;;;5031810;28;20110;-76
2023/06/01 07:44:12;;;;;;;5.43;3.33;;;17.40;56.40;;;;;;5014616;28;20125;-77
2023/06/01 07:46:38;;;;;;;5.40;3.58;;;17.40;56.30;;;;;;4999377;28;20037;-76
2023/06/01 07:49:03;;;;;;;6.10;3.40;;;17.50;56.30;;;;;;4998465;28;20038;-75
2023/06/01 07:51:31;;;;;;;6.95;2.80;;;17.60;56.30;;;;;;4998650;28;20117;-77
2023/06/01 07:53:57;;;;;;;5.90;3.20;;;17.60;56.20;;;;;;5031068;28;20053;-76
2023/06/01 07:56:27;;;;;;;6.30;3.50;;;17.60;56.20;;;;;;4999095;28;20026;-76
2023/06/01 07:58:53;;;;;;;4.28;2.90;;;17.60;56.10;;;;;;4999272;28;20125;-77
2023/06/01 08:01:19;;;;;;;5.00;3.13;;;17.70;56.10;;;;;;5047730;28;20091;-76
2023/06/01 08:03:45;;;;;;;4.85;2.80;;;17.70;56.10;;;;;;5032219;28;20139;-75
2023/06/01 08:06:11;;;;;;;4.32;2.83;;;17.80;56.10;;;;;;4997830;28;20026;-77
2023/06/01 08:08:38;;;;;;;5.47;3.03;;;17.80;56.10;;;;;;5015371;28;20480;-78
2023/06/01 08:11:03;;;;;;;3.75;2.67;;;17.80;56.00;;;;;;5047016;28;20041;-77
2023/06/01 08:13:29;;;;;;;4.78;3.03;;;17.90;56.00;;;;;;5047093;28;20034;-77
2023/06/01 08:15:55;;;;;;;4.68;2.92;;;18.00;56.00;;;;;;5014164;28;20199;-77
2023/06/01 08:18:22;;;;;;;5.25;2.72;;;17.90;55.90;;;;;;5046888;28;20038;-77
2023/06/01 08:20:48;;;;;;;5.60;3.10;;;18.00;55.90;;;;;;4997453;28;20038;-77
2023/06/01 08:23:16;;;;;;;3.97;2.67;;;18.10;55.80;;;;;;5015304;28;20030;-77
2023/06/01 08:25:44;;;;;;;4.68;2.83;;;18.10;55.80;;;;;;5014018;28;20057;-77
2023/06/01 08:28:10;;;;;;;3.85;2.95;;;18.10;55.80;;;;;;5015018;28;20505;-76
2023/06/01 08:30:36;;;;;;;4.40;2.65;;;18.20;55.70;;;;;;5030527;28;20034;-76
2023/06/01 08:33:05;;;;;;;4.50;2.88;;;18.30;55.70;;;;;;5013634;28;20041;-79
2023/06/01 08:35:33;;;;;;;4.65;2.92;;;18.30;55.60;;;;;;5014667;28;20366;-77
2023/06/01 08:38:03;;;;;;;4.68;3.00;;;18.40;55.60;;;;;;5013935;28;20026;-77
2023/06/01 08:40:31;;;;;;;4.35;2.67;;;18.40;55.60;;;;;;5013528;28;20045;-77
2023/06/01 08:43:09;;;;;;;5.28;2.83;;;18.50;55.50;;;;;;5030268;28;20117;-77
2023/06/01 08:45:37;;;;;;;4.13;3.08;;;18.60;55.40;;;;;;5030016;28;20032;-77
2023/06/01 08:48:08;;;;;;;4.10;2.70;;;18.60;55.30;;;;;;5046284;28;20129;-77
2023/06/01 08:50:34;;;;;;;4.75;3.13;;;18.70;55.30;;;;;;5015437;28;20038;-77
2023/06/01 08:53:01;;;;;;;4.50;2.78;;;18.80;55.20;;;;;;5029946;28;20030;-77
2023/06/01 08:55:28;;;;;;;4.32;3.03;;;18.80;55.10;;;;;;5013515;28;20455;-77
2023/06/01 08:57:54;;;;;;;4.80;3.05;;;18.90;55.00;;;;;;5014024;28;20041;-78
2023/06/01 09:00:21;;;;;;;3.95;2.40;;;19.00;55.00;;;;;;4997028;28;20045;-77
2023/06/01 09:02:46;;;;;;;4.32;2.85;;;19.00;54.90;;;;;;4997242;28;20087;-76
2023/06/01 09:05:13;;;;;;;4.50;2.95;;;19.10;54.80;;;;;;5013365;28;20443;-75
2023/06/01 09:07:39;;;;;;;5.88;3.22;;;19.20;54.80;;;;;;4996625;28;20053;-76
2023/06/01 09:10:06;;;;;;;3.67;2.65;;;19.30;54.80;;;;;;5013713;28;20038;-76
2023/06/01 09:12:33;;;;;;;3.97;2.63;;;19.40;54.90;;;;;;5047778;28;20030;-76
2023/06/01 09:15:16;;;;;;;3.55;2.60;;;19.40;54.90;;;;;;5014226;28;20026;-77
2023/06/01 09:17:47;;;;;;;3.78;2.88;;;19.50;54.90;;;;;;5029627;28;20042;-76
2023/06/01 09:20:14;;;;;;;4.05;2.83;;;19.60;54.70;;;;;;4997693;28;20422;-76
2023/06/01 09:22:44;;;;;;;4.03;2.60;;;19.60;54.60;;;;;;5046521;28;20038;-76
2023/06/01 09:25:12;;;;;;;4.05;3.05;;;19.70;54.60;;;;;;5031839;28;20113;-76
2023/06/01 09:27:52;;;;;;;4.30;2.80;;;19.80;54.50;;;;;;5014780;28;20092;-77
2023/06/01 09:30:20;;;;;;;4.10;2.92;;;19.90;54.50;;;;;;5013025;28;20034;-78
2023/06/01 09:32:50;;;;;;;4.15;2.65;;;20.00;54.40;;;;;;5029249;28;20080;-76
2023/06/01 09:35:36;;;;;;;5.00;2.92;;;20.10;54.40;;;;;;5013145;28;20065;-78
2023/06/01 09:38:05;;;;;;;4.13;2.58;;;20.20;54.40;;;;;;5015272;28;20124;-75
2023/06/01 09:40:32;;;;;;;3.78;2.30;;;20.30;54.30;;;;;;4997098;28;20034;-76
2023/06/01 09:42:58;;;;;;;4.22;2.60;;;20.30;54.30;;;;;;5028998;28;20499;-75
2023/06/01 09:45:24;;;;;;;3.35;2.67;;;20.40;54.20;;;;;;4996154;28;20042;-76
2023/06/01 09:47:52;;;;;;;3.90;2.65;;;20.50;54.30;;;;;;5013881;28;20046;-77
2023/06/01 09:50:37;;;;;;;4.18;2.65;;;20.60;54.20;;;;;;5029044;28;20445;-77
2023/06/01 09:53:05;;;;;;;4.65;2.53;;;20.60;54.30;;;;;;4997052;28;20036;-79
2023/06/01 09:55:34;;;;;;;3.92;2.30;;;20.80;54.10;;;;;;4996313;28;20109;-77
2023/06/01 09:58:22;;;;;;;3.28;2.47;;;20.80;54.00;;;;;;5012674;28;20034;-75
2023/06/01 10:00:50;;;;;;;3.92;2.63;;;20.90;54.10;;;;;;5028899;28;20065;-77
2023/06/01 10:03:17;;;;;;;4.05;2.47;;;21.00;53.90;;;;;;5028912;28;20477;-79
2023/06/01 10:05:44;;;;;;;3.42;2.45;;;21.10;53.90;;;;;;5012445;28;20022;-79
2023/06/01 10:08:14;;;;;;;3.63;2.50;;;21.20;53.90;;;;;;5029113;28;20050;-80
2023/06/01 10:10:43;;;;;;;3.30;2.35;;;21.30;53.90;;;;;;5012291;28;20030;-79
2023/06/01 10:13:10;;;;;;;3.42;2.22;;;21.30;53.80;;;;;;4996495;28;20022;-78
2023/06/01 10:15:36;;;;;;;2.70;2.10;;;21.40;53.80;;;;;;5012598;28;20033;-78
2023/06/01 10:18:03;;;;;;;3.75;2.30;;;21.50;53.70;;;;;;5012657;28;20125;-78
2023/06/01 10:20:36;;;;;;;3.85;2.35;;;21.60;53.70;;;;;;5028701;28;20030;-78
2023/06/01 10:23:02;;;;;;;3.25;2.33;;;21.70;53.70;;;;;;5014330;28;20030;-78
2023/06/01 10:25:47;;;;;;;3.85;2.50;;;21.80;53.70;;;;;;4996607;28;20030;-78
2023/06/01 10:28:13;;;;;;;2.67;2.00;;;21.80;53.70;;;;;;5029037;28;20525;-77
2023/06/01 10:30:40;;;;;;;3.70;2.30;;;21.90;53.50;;;;;;5012014;28;20168;-77
2023/06/01 10:33:06;;;;;;;3.65;2.30;;;22.00;53.50;;;;;;5012664;28;20041;-77
2023/06/01 10:35:50;;;;;;;4.07;2.10;;;22.10;53.50;;;;;;5012015;28;20026;-77
2023/06/01 10:38:19;;;;;;;4.03;2.30;;;22.20;53.40;;;;;;5045358;28;20038;-77
2023/06/01 10:40:46;;;;;;;3.67;2.38;;;22.30;53.30;;;;;;5013595;28;20285;-78
2023/06/01 10:43:37;;;;;;;4.28;2.30;;;22.40;53.30;;;;;;5014546;28;20052;-77
2023/06/01 10:46:16;;;;;;;3.50;1.95;;;22.40;53.40;;;;;;5049343;28;20099;-77
2023/06/01 10:48:53;;;;;;;3.33;2.30;;;22.50;53.30;;;;;;5032787;28;20204;-77
2023/06/01 10:51:20;;;;;;;3.58;2.40;;;22.60;53.30;;;;;;5017194;28;20030;-77
2023/06/01 10:53:46;;;;;;;3.45;2.20;;;22.70;53.30;;;;;;5032672;28;20482;-82
2023/06/01 10:56:19;;;;;;;4.53;2.45;;;22.80;53.30;;;;;;5016565;28;20030;-77
2023/06/01 10:58:45;;;;;;;2.88;2.10;;;22.80;53.20;;;;;;5015436;28;20053;-77
2023/06/01 11:01:19;;;;;;;3.75;2.20;;;22.90;53.20;;;;;;5015984;28;20037;-80
2023/06/01 11:03:46;;;;;;;4.00;2.33;;;22.90;53.40;;;;;;5032108;28;20058;-80
2023/06/01 11:06:43;;;;;;;4.10;2.40;;;23.00;53.40;;;;;;5015500;28;20122;-82
2023/06/01 11:09:10;;;;;;;4.22;2.28;;;23.00;53.50;;;;;;5015939;28;20061;-79
2023/06/01 11:11:50;;;;;;;4.43;2.45;;;23.10;53.40;;;;;;5015264;28;20026;-77
2023/06/01 11:14:19;;;;;;;3.38;2.13;;;23.10;53.50;;;;;;4999169;28;20030;-77
2023/06/01 11:16:45;;;;;;;3.70;2.40;;;23.20;53.50;;;;;;5031779;28;20398;-78
2023/06/01 11:19:17;;;;;;;3.83;2.40;;;23.20;53.50;;;;;;5015482;28;20034;-78
2023/06/01 11:21:44;;;;;;;3.78;2.30;;;23.20;53.60;;;;;;5031581;28;20030;-77
2023/06/01 11:24:15;;;;;;;3.55;2.17;;;23.30;53.60;;;;;;5048582;28;20493;-77
2023/06/01 11:26:43;;;;;;;4.13;2.70;;;23.30;53.70;;;;;;5016378;28;20159;-77
2023/06/01 11:29:21;;;;;;;3.60;2.33;;;23.30;53.60;;;;;;5031556;28;20057;-76
2023/06/01 11:31:54;;;;;;;4.47;2.33;;;23.30;54.30;;;;;;5031845;28;20026;-78
2023/06/01 11:34:31;;;;;;;2.85;2.05;;;23.40;53.70;;;;;;4998744;28;20032;-78
2023/06/01 11:36:58;;;;;;;2.72;2.10;;;23.40;53.60;;;;;;5015037;28;20030;-77
2023/06/01 11:39:28;;;;;;;3.17;2.00;;;23.40;54.30;;;;;;5016563;28;20033;-78
2023/06/01 11:42:12;;;;;;;4.70;2.42;;;23.40;53.70;;;;;;5035079;28;20500;-78
2023/06/01 11:44:39;;;;;;;3.42;2.30;;;23.40;53.80;;;;;;5019223;28;20044;-77
2023/06/01 11:47:07;;;;;;;3.30;2.15;;;23.50;53.90;;;;;;5032348;28;20389;-78
2023/06/01 11:49:48;;;;;;;3.78;2.25;;;23.50;53.90;;;;;;5032348;28;20061;-78
2023/06/01 11:52:18;;;;;;;3.92;2.30;;;23.50;54.00;;;;;;5015663;28;20060;-78
2023/06/01 11:54:44;;;;;;;3.35;2.20;;;23.50;53.80;;;;;;5015980;28;20434;-77
2023/06/01 11:57:10;;;;;;;3.25;2.30;;;23.50;53.60;;;;;;5015111;28;20110;-78
2023/06/01 12:00:12;;;;;;;3.00;2.17;;;23.50;53.50;;;;;;5015423;28;20370;-77
2023/06/01 12:02:38;;;;;;;3.20;2.10;;;23.50;53.40;;;;;;5030658;28;20340;-77
2023/06/01 12:05:08;;;;;;;2.75;1.90;;;23.50;53.90;;;;;;4982397;28;20064;-78
2023/06/01 12:07:51;;;;;;;3.65;2.30;;;23.50;53.20;;;;;;5014300;28;20199;-77
2023/06/01 12:10:19;;;;;;;3.83;2.30;;;23.50;53.00;;;;;;5031191;28;20462;-79
2023/06/01 12:12:48;;;;;;;3.67;2.47;;;23.60;52.80;;;;;;5015907;28;20061;-78
2023/06/01 12:15:16;;;;;;;3.75;2.15;;;23.50;52.70;;;;;;5017644;28;20501;-78
2023/06/01 12:17:52;;;;;;;3.70;2.58;;;23.50;52.60;;;;;;5015841;28;20030;-78
2023/06/01 12:20:45;;;;;;;3.78;2.17;;;23.60;52.50;;;;;;5014988;28;20116;-78
2023/06/01 12:23:14;;;;;;;3.53;2.35;;;23.60;52.50;;;;;;5030907;28;20483;-78
2023/06/01 12:25:50;;;;;;;4.05;2.35;;;23.50;52.40;;;;;;5016312;28;20105;-77
2023/06/01 12:28:19;;;;;;;3.28;2.17;;;23.50;52.40;;;;;;4997933;28;20467;-77
2023/06/01 12:30:46;;;;;;;3.85;2.67;;;23.50;52.50;;;;;;4998004;28;20429;-76
2023/06/01 12:33:35;;;;;;;3.55;2.20;;;23.50;52.40;;;;;;5030359;28;20096;-81
2023/06/01 12:36:02;;;;;;;2.65;1.95;;;23.50;52.40;;;;;;5030874;28;20030;-78
2023/06/01 12:38:27;;;;;;;4.50;2.33;;;23.50;52.30;;;;;;5030419;28;20049;-77
2023/06/01 12:41:11;;;;;;;3.05;2.10;;;23.50;52.20;;;;;;5013825;28;20042;-79
2023/06/01 12:43:38;;;;;;;4.05;2.50;;;23.50;52.20;;;;;;4997560;28;20037;-78
2023/06/01 12:46:07;;;;;;;4.35;2.17;;;23.50;52.10;;;;;;5013930;28;20116;-77
2023/06/01 12:48:36;;;;;;;3.42;2.30;;;23.50;52.00;;;;;;5031201;28;20163;-78
2023/06/01 12:51:03;;;;;;;3.60;2.20;;;23.50;52.00;;;;;;5031884;28;20498;-78
2023/06/01 12:53:29;;;;;;;3.75;2.17;;;23.50;52.00;;;;;;5048857;28;20026;-77
2023/06/01 12:55:55;;;;;;;4.28;2.40;;;23.50;52.00;;;;;;5013446;28;20030;-78
2023/06/01 12:58:21;;;;;;;3.78;1.98;;;23.50;51.90;;;;;;5014473;28;20113;-78